sensor_id;sensor_type;location;lat;lon;timestamp;P1;durP1;ratioP1;P2;durP2;ratioP2
75550;SDS011;65071;53.082;18.218;2023-08-07T00:01:33;1.00;;;0.50;;
75550;SDS011;65071;53.082;18.218;2023-08-07T00:04:00;0.90;;;0.50;;
75550;SDS011;65071;53.082;18.218;2023-08-07T00:06:26;0.70;;;0.70;;
75550;SDS011;65071;53.082;18.218;2023-08-07T00:08:53;1.40;;;0.80;;
75550;SDS011;65071;53.082;18.218;2023-08-07T00:11:19;1.10;;;0.70;;
75550;SDS011;65071;53.082;18.218;2023-08-07T00:13:46;1.10;;;0.50;;
75550;SDS011;65071;53.082;18.218;2023-08-07T00:16:12;0.90;;;0.50;;
75550;SDS011;65071;53.082;18.218;2023-08-07T00:18:39;0.70;;;0.70;;
75550;SDS011;65071;53.082;18.218;2023-08-07T00:21:05;1.30;;;0.90;;
75550;SDS011;65071;53.082;18.218;2023-08-07T00:23:32;0.70;;;0.50;;
75550;SDS011;65071;53.082;18.218;2023-08-07T00:25:59;0.80;;;0.70;;
75550;SDS011;65071;53.082;18.218;2023-08-07T00:28:25;1.50;;;0.60;;
75550;SDS011;65071;53.082;18.218;2023-08-07T00:30:52;0.60;;;0.60;;
75550;SDS011;65071;53.082;18.218;2023-08-07T00:33:18;1.30;;;0.70;;
75550;SDS011;65071;53.082;18.218;2023-08-07T00:35:45;2.50;;;0.90;;
75550;SDS011;65071;53.082;18.218;2023-08-07T00:38:12;0.90;;;0.90;;
75550;SDS011;65071;53.082;18.218;2023-08-07T00:40:39;0.80;;;0.70;;
75550;SDS011;65071;53.082;18.218;2023-08-07T00:43:06;0.80;;;0.70;;
75550;SDS011;65071;53.082;18.218;2023-08-07T00:45:34;1.90;;;0.60;;
75550;SDS011;65071;53.082;18.218;2023-08-07T00:48:04;1.10;;;0.50;;
75550;SDS011;65071;53.082;18.218;2023-08-07T00:50:31;0.70;;;0.70;;
75550;SDS011;65071;53.082;18.218;2023-08-07T00:52:59;1.10;;;0.60;;
75550;SDS011;65071;53.082;18.218;2023-08-07T00:55:26;0.70;;;0.60;;
75550;SDS011;65071;53.082;18.218;2023-08-07T00:57:53;2.10;;;0.80;;
75550;SDS011;65071;53.082;18.218;2023-08-07T01:00:19;1.00;;;0.90;;
75550;SDS011;65071;53.082;18.218;2023-08-07T01:02:47;0.60;;;0.60;;
75550;SDS011;65071;53.082;18.218;2023-08-07T01:05:17;0.70;;;0.70;;
75550;SDS011;65071;53.082;18.218;2023-08-07T01:07:46;1.50;;;0.80;;
75550;SDS011;65071;53.082;18.218;2023-08-07T01:10:14;1.70;;;0.70;;
75550;SDS011;65071;53.082;18.218;2023-08-07T01:15:30;0.90;;;0.60;;
75550;SDS011;65071;53.082;18.218;2023-08-07T01:17:58;1.00;;;0.60;;
75550;SDS011;65071;53.082;18.218;2023-08-07T01:20:27;1.10;;;0.40;;
75550;SDS011;65071;53.082;18.218;2023-08-07T01:22:54;0.70;;;0.60;;
75550;SDS011;65071;53.082;18.218;2023-08-07T01:25:21;0.70;;;0.50;;
75550;SDS011;65071;53.082;18.218;2023-08-07T01:27:57;1.20;;;0.40;;
75550;SDS011;65071;53.082;18.218;2023-08-07T01:30:44;0.60;;;0.50;;
75550;SDS011;65071;53.082;18.218;2023-08-07T01:33:22;0.30;;;0.30;;
75550;SDS011;65071;53.082;18.218;2023-08-07T01:35:53;0.60;;;0.50;;
75550;SDS011;65071;53.082;18.218;2023-08-07T01:38:24;0.60;;;0.50;;
75550;SDS011;65071;53.082;18.218;2023-08-07T01:40:52;0.60;;;0.30;;
75550;SDS011;65071;53.082;18.218;2023-08-07T01:43:19;0.40;;;0.40;;
75550;SDS011;65071;53.082;18.218;2023-08-07T01:45:47;0.50;;;0.30;;
75550;SDS011;65071;53.082;18.218;2023-08-07T01:48:13;0.60;;;0.40;;
75550;SDS011;65071;53.082;18.218;2023-08-07T01:50:40;0.60;;;0.50;;
75550;SDS011;65071;53.082;18.218;2023-08-07T01:53:06;0.30;;;0.30;;
75550;SDS011;65071;53.082;18.218;2023-08-07T01:55:33;0.60;;;0.40;;
75550;SDS011;65071;53.082;18.218;2023-08-07T01:57:59;0.80;;;0.40;;
75550;SDS011;65071;53.082;18.218;2023-08-07T02:00:26;0.80;;;0.30;;
75550;SDS011;65071;53.082;18.218;2023-08-07T02:02:52;0.30;;;0.30;;
75550;SDS011;65071;53.082;18.218;2023-08-07T02:05:19;0.50;;;0.40;;
75550;SDS011;65071;53.082;18.218;2023-08-07T02:07:46;0.40;;;0.40;;
75550;SDS011;65071;53.082;18.218;2023-08-07T02:10:13;0.30;;;0.30;;
75550;SDS011;65071;53.082;18.218;2023-08-07T02:12:39;0.40;;;0.40;;
75550;SDS011;65071;53.082;18.218;2023-08-07T02:15:06;1.00;;;0.40;;
75550;SDS011;65071;53.082;18.218;2023-08-07T02:17:33;0.40;;;0.40;;
75550;SDS011;65071;53.082;18.218;2023-08-07T02:20:00;0.50;;;0.40;;
75550;SDS011;65071;53.082;18.218;2023-08-07T02:22:26;1.60;;;0.30;;
75550;SDS011;65071;53.082;18.218;2023-08-07T02:24:53;0.40;;;0.40;;
75550;SDS011;65071;53.082;18.218;2023-08-07T02:27:19;0.50;;;0.40;;
75550;SDS011;65071;53.082;18.218;2023-08-07T02:29:47;1.90;;;0.60;;
75550;SDS011;65071;53.082;18.218;2023-08-07T02:32:13;1.00;;;0.30;;
75550;SDS011;65071;53.082;18.218;2023-08-07T02:34:40;0.30;;;0.30;;
75550;SDS011;65071;53.082;18.218;2023-08-07T02:37:07;0.40;;;0.30;;
75550;SDS011;65071;53.082;18.218;2023-08-07T02:39:33;0.60;;;0.40;;
75550;SDS011;65071;53.082;18.218;2023-08-07T02:42:00;0.80;;;0.40;;
75550;SDS011;65071;53.082;18.218;2023-08-07T02:44:27;0.40;;;0.30;;
75550;SDS011;65071;53.082;18.218;2023-08-07T02:46:53;0.60;;;0.50;;
75550;SDS011;65071;53.082;18.218;2023-08-07T02:49:20;1.20;;;0.30;;
75550;SDS011;65071;53.082;18.218;2023-08-07T02:51:46;0.50;;;0.40;;
75550;SDS011;65071;53.082;18.218;2023-08-07T02:54:13;0.50;;;0.40;;
75550;SDS011;65071;53.082;18.218;2023-08-07T02:56:40;0.30;;;0.30;;
75550;SDS011;65071;53.082;18.218;2023-08-07T02:59:07;0.40;;;0.30;;
75550;SDS011;65071;53.082;18.218;2023-08-07T03:01:33;0.80;;;0.30;;
75550;SDS011;65071;53.082;18.218;2023-08-07T03:04:00;0.80;;;0.50;;
75550;SDS011;65071;53.082;18.218;2023-08-07T03:06:27;0.30;;;0.30;;
75550;SDS011;65071;53.082;18.218;2023-08-07T03:08:53;0.50;;;0.40;;
75550;SDS011;65071;53.082;18.218;2023-08-07T03:11:20;0.30;;;0.30;;
75550;SDS011;65071;53.082;18.218;2023-08-07T03:13:47;0.40;;;0.40;;
75550;SDS011;65071;53.082;18.218;2023-08-07T03:16:15;0.40;;;0.40;;
75550;SDS011;65071;53.082;18.218;2023-08-07T03:18:42;1.20;;;0.30;;
75550;SDS011;65071;53.082;18.218;2023-08-07T03:21:09;1.30;;;0.50;;
75550;SDS011;65071;53.082;18.218;2023-08-07T03:23:35;2.10;;;0.40;;
75550;SDS011;65071;53.082;18.218;2023-08-07T03:26:03;0.40;;;0.40;;
75550;SDS011;65071;53.082;18.218;2023-08-07T03:28:32;0.50;;;0.50;;
75550;SDS011;65071;53.082;18.218;2023-08-07T03:30:59;0.30;;;0.30;;
75550;SDS011;65071;53.082;18.218;2023-08-07T03:33:27;0.60;;;0.40;;
75550;SDS011;65071;53.082;18.218;2023-08-07T03:35:53;0.50;;;0.50;;
75550;SDS011;65071;53.082;18.218;2023-08-07T03:38:20;0.90;;;0.40;;
75550;SDS011;65071;53.082;18.218;2023-08-07T03:40:48;0.30;;;0.30;;
75550;SDS011;65071;53.082;18.218;2023-08-07T03:43:14;1.20;;;0.70;;
75550;SDS011;65071;53.082;18.218;2023-08-07T03:45:41;0.60;;;0.40;;
75550;SDS011;65071;53.082;18.218;2023-08-07T03:48:08;0.90;;;0.30;;
75550;SDS011;65071;53.082;18.218;2023-08-07T03:50:35;1.00;;;0.40;;
75550;SDS011;65071;53.082;18.218;2023-08-07T03:53:04;0.40;;;0.40;;
75550;SDS011;65071;53.082;18.218;2023-08-07T03:55:34;0.30;;;0.30;;
75550;SDS011;65071;53.082;18.218;2023-08-07T03:58:01;4.10;;;0.60;;
75550;SDS011;65071;53.082;18.218;2023-08-07T04:00:29;0.50;;;0.40;;
75550;SDS011;65071;53.082;18.218;2023-08-07T04:02:56;0.40;;;0.40;;
75550;SDS011;65071;53.082;18.218;2023-08-07T04:05:22;1.40;;;0.40;;
75550;SDS011;65071;53.082;18.218;2023-08-07T04:07:49;0.50;;;0.40;;
75550;SDS011;65071;53.082;18.218;2023-08-07T04:10:16;1.00;;;0.40;;
75550;SDS011;65071;53.082;18.218;2023-08-07T04:12:43;0.60;;;0.30;;
75550;SDS011;65071;53.082;18.218;2023-08-07T04:15:10;0.50;;;0.40;;
75550;SDS011;65071;53.082;18.218;2023-08-07T04:17:36;0.40;;;0.40;;
75550;SDS011;65071;53.082;18.218;2023-08-07T04:20:03;0.40;;;0.40;;
75550;SDS011;65071;53.082;18.218;2023-08-07T04:22:30;0.70;;;0.60;;
75550;SDS011;65071;53.082;18.218;2023-08-07T04:24:57;0.80;;;0.60;;
75550;SDS011;65071;53.082;18.218;2023-08-07T04:27:23;1.70;;;0.60;;
75550;SDS011;65071;53.082;18.218;2023-08-07T04:29:50;0.40;;;0.40;;
75550;SDS011;65071;53.082;18.218;2023-08-07T04:32:17;2.70;;;0.60;;
75550;SDS011;65071;53.082;18.218;2023-08-07T04:34:43;0.50;;;0.30;;
75550;SDS011;65071;53.082;18.218;2023-08-07T04:37:10;1.30;;;0.50;;
75550;SDS011;65071;53.082;18.218;2023-08-07T04:39:36;1.00;;;0.50;;
75550;SDS011;65071;53.082;18.218;2023-08-07T04:42:03;0.40;;;0.40;;
75550;SDS011;65071;53.082;18.218;2023-08-07T04:44:30;0.50;;;0.50;;
75550;SDS011;65071;53.082;18.218;2023-08-07T04:46:57;1.70;;;0.40;;
75550;SDS011;65071;53.082;18.218;2023-08-07T04:49:23;0.30;;;0.30;;
75550;SDS011;65071;53.082;18.218;2023-08-07T04:51:50;1.40;;;0.50;;
75550;SDS011;65071;53.082;18.218;2023-08-07T04:54:16;0.70;;;0.50;;
75550;SDS011;65071;53.082;18.218;2023-08-07T04:56:43;0.50;;;0.40;;
75550;SDS011;65071;53.082;18.218;2023-08-07T04:59:10;0.60;;;0.50;;
75550;SDS011;65071;53.082;18.218;2023-08-07T05:01:38;1.50;;;0.60;;
75550;SDS011;65071;53.082;18.218;2023-08-07T05:04:04;0.50;;;0.40;;
75550;SDS011;65071;53.082;18.218;2023-08-07T05:06:31;1.40;;;0.40;;
75550;SDS011;65071;53.082;18.218;2023-08-07T05:08:58;1.10;;;0.60;;
75550;SDS011;65071;53.082;18.218;2023-08-07T05:11:25;0.50;;;0.50;;
75550;SDS011;65071;53.082;18.218;2023-08-07T05:13:51;0.60;;;0.50;;
75550;SDS011;65071;53.082;18.218;2023-08-07T05:16:18;1.60;;;0.50;;
75550;SDS011;65071;53.082;18.218;2023-08-07T05:18:45;0.70;;;0.70;;
75550;SDS011;65071;53.082;18.218;2023-08-07T05:21:14;0.60;;;0.60;;
75550;SDS011;65071;53.082;18.218;2023-08-07T05:23:41;0.80;;;0.70;;
75550;SDS011;65071;53.082;18.218;2023-08-07T05:26:07;1.50;;;0.90;;
75550;SDS011;65071;53.082;18.218;2023-08-07T05:28:34;1.50;;;0.80;;
75550;SDS011;65071;53.082;18.218;2023-08-07T05:31:00;1.20;;;0.90;;
75550;SDS011;65071;53.082;18.218;2023-08-07T05:33:27;1.10;;;0.70;;
75550;SDS011;65071;53.082;18.218;2023-08-07T05:35:53;0.60;;;0.60;;
75550;SDS011;65071;53.082;18.218;2023-08-07T05:38:21;0.80;;;0.60;;
75550;SDS011;65071;53.082;18.218;2023-08-07T05:40:48;0.90;;;0.60;;
75550;SDS011;65071;53.082;18.218;2023-08-07T05:43:17;1.20;;;0.60;;
75550;SDS011;65071;53.082;18.218;2023-08-07T05:45:43;1.60;;;0.70;;
75550;SDS011;65071;53.082;18.218;2023-08-07T05:48:12;0.90;;;0.80;;
75550;SDS011;65071;53.082;18.218;2023-08-07T05:50:39;0.70;;;0.60;;
75550;SDS011;65071;53.082;18.218;2023-08-07T05:53:05;1.70;;;0.80;;
75550;SDS011;65071;53.082;18.218;2023-08-07T05:55:32;1.90;;;0.70;;
75550;SDS011;65071;53.082;18.218;2023-08-07T05:57:59;0.70;;;0.70;;
75550;SDS011;65071;53.082;18.218;2023-08-07T06:00:26;0.70;;;0.60;;
75550;SDS011;65071;53.082;18.218;2023-08-07T06:02:54;1.30;;;0.40;;
75550;SDS011;65071;53.082;18.218;2023-08-07T06:05:21;1.10;;;0.60;;
75550;SDS011;65071;53.082;18.218;2023-08-07T06:07:47;2.10;;;0.70;;
75550;SDS011;65071;53.082;18.218;2023-08-07T06:10:14;0.70;;;0.60;;
75550;SDS011;65071;53.082;18.218;2023-08-07T06:12:41;1.70;;;0.90;;
75550;SDS011;65071;53.082;18.218;2023-08-07T06:15:08;0.70;;;0.60;;
75550;SDS011;65071;53.082;18.218;2023-08-07T06:17:35;1.50;;;0.80;;
75550;SDS011;65071;53.082;18.218;2023-08-07T06:20:01;1.20;;;0.80;;
75550;SDS011;65071;53.082;18.218;2023-08-07T06:24:59;2.10;;;1.10;;
75550;SDS011;65071;53.082;18.218;2023-08-07T06:27:25;1.00;;;0.70;;
75550;SDS011;65071;53.082;18.218;2023-08-07T06:29:52;0.80;;;0.70;;
75550;SDS011;65071;53.082;18.218;2023-08-07T06:32:18;1.20;;;1.00;;
75550;SDS011;65071;53.082;18.218;2023-08-07T06:34:45;2.30;;;1.10;;
75550;SDS011;65071;53.082;18.218;2023-08-07T06:37:12;2.00;;;1.00;;
75550;SDS011;65071;53.082;18.218;2023-08-07T06:39:39;2.70;;;1.30;;
75550;SDS011;65071;53.082;18.218;2023-08-07T06:42:06;2.70;;;0.90;;
75550;SDS011;65071;53.082;18.218;2023-08-07T06:44:33;2.50;;;1.00;;
75550;SDS011;65071;53.082;18.218;2023-08-07T06:47:00;2.20;;;0.80;;
75550;SDS011;65071;53.082;18.218;2023-08-07T06:49:26;2.80;;;0.70;;
75550;SDS011;65071;53.082;18.218;2023-08-07T06:51:53;2.50;;;1.10;;
75550;SDS011;65071;53.082;18.218;2023-08-07T06:54:19;1.30;;;0.80;;
75550;SDS011;65071;53.082;18.218;2023-08-07T06:56:46;1.00;;;0.90;;
75550;SDS011;65071;53.082;18.218;2023-08-07T06:59:12;2.40;;;0.90;;
75550;SDS011;65071;53.082;18.218;2023-08-07T07:01:39;2.90;;;0.90;;
75550;SDS011;65071;53.082;18.218;2023-08-07T07:04:06;2.40;;;1.00;;
75550;SDS011;65071;53.082;18.218;2023-08-07T07:06:33;1.60;;;0.80;;
75550;SDS011;65071;53.082;18.218;2023-08-07T07:08:59;1.30;;;0.90;;
75550;SDS011;65071;53.082;18.218;2023-08-07T07:11:26;1.40;;;0.90;;
75550;SDS011;65071;53.082;18.218;2023-08-07T07:13:52;1.30;;;0.90;;
75550;SDS011;65071;53.082;18.218;2023-08-07T07:16:19;1.20;;;1.00;;
75550;SDS011;65071;53.082;18.218;2023-08-07T07:18:49;1.00;;;0.80;;
75550;SDS011;65071;53.082;18.218;2023-08-07T07:21:16;2.30;;;1.10;;
75550;SDS011;65071;53.082;18.218;2023-08-07T07:23:43;1.00;;;0.80;;
75550;SDS011;65071;53.082;18.218;2023-08-07T07:26:09;2.60;;;1.30;;
75550;SDS011;65071;53.082;18.218;2023-08-07T07:28:36;0.90;;;0.80;;
75550;SDS011;65071;53.082;18.218;2023-08-07T07:31:02;1.90;;;0.80;;
75550;SDS011;65071;53.082;18.218;2023-08-07T07:33:31;1.70;;;1.00;;
75550;SDS011;65071;53.082;18.218;2023-08-07T07:35:57;1.10;;;0.90;;
75550;SDS011;65071;53.082;18.218;2023-08-07T07:38:24;1.20;;;0.80;;
75550;SDS011;65071;53.082;18.218;2023-08-07T07:40:52;1.60;;;0.70;;
75550;SDS011;65071;53.082;18.218;2023-08-07T07:43:22;1.20;;;0.70;;
75550;SDS011;65071;53.082;18.218;2023-08-07T07:45:49;1.20;;;0.80;;
75550;SDS011;65071;53.082;18.218;2023-08-07T07:48:16;3.40;;;1.00;;
75550;SDS011;65071;53.082;18.218;2023-08-07T07:50:43;1.80;;;0.90;;
75550;SDS011;65071;53.082;18.218;2023-08-07T07:53:09;1.40;;;0.90;;
75550;SDS011;65071;53.082;18.218;2023-08-07T07:55:36;1.50;;;0.80;;
75550;SDS011;65071;53.082;18.218;2023-08-07T07:58:04;1.10;;;0.80;;
75550;SDS011;65071;53.082;18.218;2023-08-07T08:00:30;1.60;;;0.70;;
75550;SDS011;65071;53.082;18.218;2023-08-07T08:02:57;1.60;;;0.80;;
75550;SDS011;65071;53.082;18.218;2023-08-07T08:05:23;1.10;;;0.70;;
75550;SDS011;65071;53.082;18.218;2023-08-07T08:07:50;1.30;;;0.70;;
75550;SDS011;65071;53.082;18.218;2023-08-07T08:10:17;1.10;;;0.80;;
75550;SDS011;65071;53.082;18.218;2023-08-07T08:12:43;2.00;;;1.00;;
75550;SDS011;65071;53.082;18.218;2023-08-07T08:15:10;1.30;;;0.60;;
75550;SDS011;65071;53.082;18.218;2023-08-07T08:17:36;1.80;;;0.80;;
75550;SDS011;65071;53.082;18.218;2023-08-07T08:20:03;2.40;;;0.90;;
75550;SDS011;65071;53.082;18.218;2023-08-07T08:22:30;0.80;;;0.60;;
75550;SDS011;65071;53.082;18.218;2023-08-07T08:24:57;1.60;;;0.90;;
75550;SDS011;65071;53.082;18.218;2023-08-07T08:27:23;1.20;;;0.80;;
75550;SDS011;65071;53.082;18.218;2023-08-07T08:29:51;1.50;;;1.00;;
75550;SDS011;65071;53.082;18.218;2023-08-07T08:32:17;1.90;;;0.90;;
75550;SDS011;65071;53.082;18.218;2023-08-07T08:34:44;0.90;;;0.80;;
75550;SDS011;65071;53.082;18.218;2023-08-07T08:37:12;1.50;;;0.70;;
75550;SDS011;65071;53.082;18.218;2023-08-07T08:39:38;2.40;;;0.80;;
75550;SDS011;65071;53.082;18.218;2023-08-07T08:42:05;1.40;;;0.80;;
75550;SDS011;65071;53.082;18.218;2023-08-07T08:44:31;0.90;;;0.50;;
75550;SDS011;65071;53.082;18.218;2023-08-07T08:47:03;1.40;;;0.90;;
75550;SDS011;65071;53.082;18.218;2023-08-07T08:49:32;0.90;;;0.60;;
75550;SDS011;65071;53.082;18.218;2023-08-07T08:52:02;1.20;;;0.70;;
75550;SDS011;65071;53.082;18.218;2023-08-07T08:54:29;1.40;;;0.80;;
75550;SDS011;65071;53.082;18.218;2023-08-07T08:56:57;2.20;;;0.90;;
75550;SDS011;65071;53.082;18.218;2023-08-07T09:01:53;1.70;;;0.80;;
75550;SDS011;65071;53.082;18.218;2023-08-07T09:04:19;1.30;;;0.80;;
75550;SDS011;65071;53.082;18.218;2023-08-07T09:06:46;1.20;;;0.80;;
75550;SDS011;65071;53.082;18.218;2023-08-07T09:09:14;2.10;;;0.80;;
75550;SDS011;65071;53.082;18.218;2023-08-07T09:11:42;0.80;;;0.60;;
75550;SDS011;65071;53.082;18.218;2023-08-07T09:14:11;1.60;;;0.90;;
75550;SDS011;65071;53.082;18.218;2023-08-07T09:16:46;0.80;;;0.70;;
75550;SDS011;65071;53.082;18.218;2023-08-07T09:19:14;1.20;;;1.00;;
75550;SDS011;65071;53.082;18.218;2023-08-07T09:21:41;2.50;;;0.90;;
75550;SDS011;65071;53.082;18.218;2023-08-07T09:24:08;1.90;;;0.80;;
75550;SDS011;65071;53.082;18.218;2023-08-07T09:26:35;1.80;;;0.90;;
75550;SDS011;65071;53.082;18.218;2023-08-07T09:29:02;0.90;;;0.60;;
75550;SDS011;65071;53.082;18.218;2023-08-07T09:31:29;1.20;;;0.70;;
75550;SDS011;65071;53.082;18.218;2023-08-07T09:34:02;0.90;;;0.70;;
75550;SDS011;65071;53.082;18.218;2023-08-07T09:36:31;1.90;;;1.00;;
75550;SDS011;65071;53.082;18.218;2023-08-07T09:39:01;1.40;;;0.80;;
75550;SDS011;65071;53.082;18.218;2023-08-07T09:41:28;2.40;;;0.90;;
75550;SDS011;65071;53.082;18.218;2023-08-07T09:43:56;0.90;;;0.70;;
75550;SDS011;65071;53.082;18.218;2023-08-07T09:46:25;1.20;;;0.80;;
75550;SDS011;65071;53.082;18.218;2023-08-07T09:48:52;0.50;;;0.50;;
75550;SDS011;65071;53.082;18.218;2023-08-07T09:51:18;1.40;;;0.50;;
75550;SDS011;65071;53.082;18.218;2023-08-07T09:53:46;2.40;;;0.90;;
75550;SDS011;65071;53.082;18.218;2023-08-07T09:56:13;0.60;;;0.60;;
75550;SDS011;65071;53.082;18.218;2023-08-07T09:58:43;1.10;;;0.70;;
75550;SDS011;65071;53.082;18.218;2023-08-07T10:01:14;1.30;;;0.60;;
75550;SDS011;65071;53.082;18.218;2023-08-07T10:03:42;1.00;;;0.70;;
75550;SDS011;65071;53.082;18.218;2023-08-07T10:06:09;1.30;;;0.70;;
75550;SDS011;65071;53.082;18.218;2023-08-07T10:08:36;1.10;;;0.70;;
75550;SDS011;65071;53.082;18.218;2023-08-07T10:11:04;1.30;;;0.60;;
75550;SDS011;65071;53.082;18.218;2023-08-07T10:13:32;1.40;;;0.60;;
75550;SDS011;65071;53.082;18.218;2023-08-07T10:15:59;0.80;;;0.60;;
75550;SDS011;65071;53.082;18.218;2023-08-07T10:18:26;1.50;;;1.10;;
75550;SDS011;65071;53.082;18.218;2023-08-07T10:20:52;1.20;;;0.70;;
75550;SDS011;65071;53.082;18.218;2023-08-07T10:23:20;2.80;;;1.00;;
75550;SDS011;65071;53.082;18.218;2023-08-07T10:25:47;2.60;;;0.90;;
75550;SDS011;65071;53.082;18.218;2023-08-07T10:28:16;1.40;;;1.00;;
75550;SDS011;65071;53.082;18.218;2023-08-07T10:30:44;1.50;;;0.90;;
75550;SDS011;65071;53.082;18.218;2023-08-07T10:33:11;2.90;;;1.00;;
75550;SDS011;65071;53.082;18.218;2023-08-07T10:35:44;1.80;;;0.90;;
75550;SDS011;65071;53.082;18.218;2023-08-07T10:38:13;1.20;;;0.90;;
75550;SDS011;65071;53.082;18.218;2023-08-07T10:45:59;1.20;;;1.00;;
75550;SDS011;65071;53.082;18.218;2023-08-07T10:51:03;2.30;;;1.10;;
75550;SDS011;65071;53.082;18.218;2023-08-07T10:53:31;1.50;;;1.10;;
75550;SDS011;65071;53.082;18.218;2023-08-07T10:56:03;1.00;;;0.70;;
75550;SDS011;65071;53.082;18.218;2023-08-07T10:58:34;2.40;;;0.90;;
75550;SDS011;65071;53.082;18.218;2023-08-07T11:03:48;1.80;;;1.10;;
75550;SDS011;65071;53.082;18.218;2023-08-07T11:06:17;1.40;;;1.10;;
75550;SDS011;65071;53.082;18.218;2023-08-07T11:08:44;2.20;;;1.20;;
75550;SDS011;65071;53.082;18.218;2023-08-07T11:11:10;2.20;;;1.30;;
75550;SDS011;65071;53.082;18.218;2023-08-07T11:13:37;1.60;;;1.40;;
75550;SDS011;65071;53.082;18.218;2023-08-07T11:16:04;1.90;;;1.00;;
75550;SDS011;65071;53.082;18.218;2023-08-07T11:18:31;2.00;;;1.20;;
75550;SDS011;65071;53.082;18.218;2023-08-07T11:20:58;2.50;;;1.10;;
75550;SDS011;65071;53.082;18.218;2023-08-07T11:23:25;2.20;;;1.10;;
75550;SDS011;65071;53.082;18.218;2023-08-07T11:25:53;2.20;;;1.20;;
75550;SDS011;65071;53.082;18.218;2023-08-07T11:28:21;1.40;;;1.10;;
75550;SDS011;65071;53.082;18.218;2023-08-07T11:30:49;2.90;;;1.30;;
75550;SDS011;65071;53.082;18.218;2023-08-07T11:33:20;2.30;;;1.20;;
75550;SDS011;65071;53.082;18.218;2023-08-07T11:35:48;2.70;;;1.00;;
75550;SDS011;65071;53.082;18.218;2023-08-07T11:38:28;1.60;;;1.10;;
75550;SDS011;65071;53.082;18.218;2023-08-07T11:41:05;1.30;;;1.20;;
75550;SDS011;65071;53.082;18.218;2023-08-07T11:43:33;2.00;;;1.20;;
75550;SDS011;65071;53.082;18.218;2023-08-07T11:46:01;1.70;;;1.20;;
75550;SDS011;65071;53.082;18.218;2023-08-07T11:48:30;1.60;;;1.20;;
75550;SDS011;65071;53.082;18.218;2023-08-07T11:50:59;1.40;;;1.20;;
75550;SDS011;65071;53.082;18.218;2023-08-07T11:53:30;2.30;;;1.40;;
75550;SDS011;65071;53.082;18.218;2023-08-07T11:56:00;3.30;;;1.40;;
75550;SDS011;65071;53.082;18.218;2023-08-07T11:58:40;2.40;;;1.40;;
75550;SDS011;65071;53.082;18.218;2023-08-07T12:01:19;2.10;;;1.30;;
75550;SDS011;65071;53.082;18.218;2023-08-07T12:06:32;1.40;;;1.20;;
75550;SDS011;65071;53.082;18.218;2023-08-07T12:08:59;1.80;;;1.20;;
75550;SDS011;65071;53.082;18.218;2023-08-07T12:11:28;4.30;;;1.30;;
75550;SDS011;65071;53.082;18.218;2023-08-07T12:13:55;1.90;;;1.30;;
75550;SDS011;65071;53.082;18.218;2023-08-07T12:16:22;3.40;;;1.30;;
75550;SDS011;65071;53.082;18.218;2023-08-07T12:18:50;2.50;;;1.30;;
75550;SDS011;65071;53.082;18.218;2023-08-07T12:23:50;2.30;;;1.30;;
75550;SDS011;65071;53.082;18.218;2023-08-07T12:26:17;2.10;;;0.90;;
75550;SDS011;65071;53.082;18.218;2023-08-07T12:28:44;1.80;;;1.10;;
75550;SDS011;65071;53.082;18.218;2023-08-07T12:31:10;1.50;;;0.80;;
75550;SDS011;65071;53.082;18.218;2023-08-07T12:33:37;1.90;;;1.00;;
75550;SDS011;65071;53.082;18.218;2023-08-07T12:36:03;1.30;;;1.00;;
75550;SDS011;65071;53.082;18.218;2023-08-07T12:38:30;0.90;;;0.80;;
75550;SDS011;65071;53.082;18.218;2023-08-07T12:40:57;3.40;;;0.90;;
75550;SDS011;65071;53.082;18.218;2023-08-07T12:43:24;3.60;;;1.00;;
75550;SDS011;65071;53.082;18.218;2023-08-07T12:45:51;2.30;;;1.10;;
75550;SDS011;65071;53.082;18.218;2023-08-07T12:48:19;2.10;;;1.10;;
75550;SDS011;65071;53.082;18.218;2023-08-07T12:50:46;1.60;;;0.90;;
75550;SDS011;65071;53.082;18.218;2023-08-07T12:53:12;1.70;;;0.90;;
75550;SDS011;65071;53.082;18.218;2023-08-07T12:55:39;1.50;;;1.20;;
75550;SDS011;65071;53.082;18.218;2023-08-07T12:58:06;1.80;;;1.10;;
75550;SDS011;65071;53.082;18.218;2023-08-07T13:00:33;1.60;;;1.00;;
75550;SDS011;65071;53.082;18.218;2023-08-07T13:02:59;1.10;;;0.80;;
75550;SDS011;65071;53.082;18.218;2023-08-07T13:05:27;1.00;;;0.90;;
75550;SDS011;65071;53.082;18.218;2023-08-07T13:07:55;1.50;;;0.80;;
75550;SDS011;65071;53.082;18.218;2023-08-07T13:10:24;1.90;;;1.00;;
75550;SDS011;65071;53.082;18.218;2023-08-07T13:12:54;4.10;;;1.40;;
75550;SDS011;65071;53.082;18.218;2023-08-07T13:15:21;1.80;;;0.80;;
75550;SDS011;65071;53.082;18.218;2023-08-07T13:17:47;3.20;;;1.20;;
75550;SDS011;65071;53.082;18.218;2023-08-07T13:20:14;2.00;;;1.20;;
75550;SDS011;65071;53.082;18.218;2023-08-07T13:22:41;1.70;;;1.30;;
75550;SDS011;65071;53.082;18.218;2023-08-07T13:25:09;1.50;;;1.00;;
75550;SDS011;65071;53.082;18.218;2023-08-07T13:27:37;2.60;;;1.10;;
75550;SDS011;65071;53.082;18.218;2023-08-07T13:30:05;1.30;;;0.90;;
75550;SDS011;65071;53.082;18.218;2023-08-07T13:32:33;1.60;;;0.90;;
75550;SDS011;65071;53.082;18.218;2023-08-07T13:34:59;4.00;;;1.40;;
75550;SDS011;65071;53.082;18.218;2023-08-07T13:37:26;2.80;;;0.90;;
75550;SDS011;65071;53.082;18.218;2023-08-07T13:39:53;1.50;;;1.00;;
75550;SDS011;65071;53.082;18.218;2023-08-07T13:42:23;2.70;;;1.10;;
75550;SDS011;65071;53.082;18.218;2023-08-07T13:44:50;1.20;;;0.80;;
75550;SDS011;65071;53.082;18.218;2023-08-07T13:47:17;1.70;;;1.20;;
75550;SDS011;65071;53.082;18.218;2023-08-07T13:49:44;1.50;;;0.90;;
75550;SDS011;65071;53.082;18.218;2023-08-07T13:52:10;3.90;;;1.20;;
75550;SDS011;65071;53.082;18.218;2023-08-07T13:54:37;1.20;;;1.00;;
75550;SDS011;65071;53.082;18.218;2023-08-07T13:57:04;1.50;;;1.10;;
75550;SDS011;65071;53.082;18.218;2023-08-07T13:59:31;3.10;;;1.30;;
75550;SDS011;65071;53.082;18.218;2023-08-07T14:01:57;2.80;;;0.90;;
75550;SDS011;65071;53.082;18.218;2023-08-07T14:04:25;2.30;;;1.10;;
75550;SDS011;65071;53.082;18.218;2023-08-07T14:06:52;1.40;;;1.00;;
75550;SDS011;65071;53.082;18.218;2023-08-07T14:09:19;1.20;;;1.00;;
75550;SDS011;65071;53.082;18.218;2023-08-07T14:11:48;3.50;;;1.10;;
75550;SDS011;65071;53.082;18.218;2023-08-07T14:14:15;1.70;;;0.80;;
75550;SDS011;65071;53.082;18.218;2023-08-07T14:16:42;1.00;;;0.80;;
75550;SDS011;65071;53.082;18.218;2023-08-07T14:19:09;2.60;;;0.90;;
75550;SDS011;65071;53.082;18.218;2023-08-07T14:21:35;2.20;;;0.90;;
75550;SDS011;65071;53.082;18.218;2023-08-07T14:24:02;2.10;;;0.80;;
75550;SDS011;65071;53.082;18.218;2023-08-07T14:26:29;1.60;;;1.10;;
75550;SDS011;65071;53.082;18.218;2023-08-07T14:28:55;2.80;;;1.00;;
75550;SDS011;65071;53.082;18.218;2023-08-07T14:31:22;2.30;;;1.20;;
75550;SDS011;65071;53.082;18.218;2023-08-07T14:33:49;3.50;;;1.00;;
75550;SDS011;65071;53.082;18.218;2023-08-07T14:36:15;1.90;;;1.00;;
75550;SDS011;65071;53.082;18.218;2023-08-07T14:38:42;2.30;;;0.80;;
75550;SDS011;65071;53.082;18.218;2023-08-07T14:41:09;2.80;;;0.90;;
75550;SDS011;65071;53.082;18.218;2023-08-07T14:43:36;2.20;;;1.10;;
75550;SDS011;65071;53.082;18.218;2023-08-07T14:46:02;2.60;;;0.80;;
75550;SDS011;65071;53.082;18.218;2023-08-07T14:48:29;1.80;;;0.90;;
75550;SDS011;65071;53.082;18.218;2023-08-07T14:50:55;2.40;;;0.90;;
75550;SDS011;65071;53.082;18.218;2023-08-07T14:53:23;1.60;;;0.90;;
75550;SDS011;65071;53.082;18.218;2023-08-07T14:55:51;1.20;;;0.90;;
75550;SDS011;65071;53.082;18.218;2023-08-07T14:58:17;2.00;;;1.00;;